Time;durP1;ratioP1;P1;durP2;ratioP2;P2;SDS_P1;SDS_P2;PMS_P1;PMS_P2;Temp;Humidity;BMP_temperature;BMP_pressure;BME280_temperature;BME280_humidity;BME280_pressure;Samples;Min_cycle;Max_cycle;Signal;HPM_P1;HPM_P2
2022/10/01 00:01:46;;;;;;;1.13;0.95;;;;;;;;;;5114198;28;20027;-89
2022/10/01 00:04:12;;;;;;;1.58;1.25;;;;;;;;;;5110867;28;20379;-84
2022/10/01 00:06:37;;;;;;;1.15;0.88;;;;;;;;;;5113722;28;20019;-86
2022/10/01 00:09:02;;;;;;;1.45;1.17;;;;;;;;;;5112076;28;20019;-85
2022/10/01 00:11:29;;;;;;;1.55;1.23;;;;;;;;;;5112865;28;20034;-86
2022/10/01 00:13:56;;;;;;;2.05;1.42;;;;;;;;;;5112943;28;20075;-88
2022/10/01 00:16:24;;;;;;;1.20;0.90;;;;;;;;;;5113032;28;20027;-86
2022/10/01 00:18:52;;;;;;;1.10;0.85;;;;;;;;;;5111939;28;20028;-88
2022/10/01 00:21:20;;;;;;;1.52;1.17;;;;;;;;;;5113156;28;20024;-85
2022/10/01 00:23:46;;;;;;;0.70;0.68;;;;;;;;;;5114357;28;20442;-87
2022/10/01 00:26:12;;;;;;;1.75;1.13;;;;;;;;;;5113598;28;20374;-87
2022/10/01 00:28:38;;;;;;;1.40;1.08;;;;;;;;;;5113621;28;20072;-87
2022/10/01 00:31:05;;;;;;;1.25;0.90;;;;;;;;;;5113791;28;20035;-88
2022/10/01 00:33:31;;;;;;;2.35;1.50;;;;;;;;;;5112696;28;20024;-87
2022/10/01 00:35:57;;;;;;;0.55;0.55;;;;;;;;;;5114463;28;20025;-89
2022/10/01 00:38:23;;;;;;;1.48;1.13;;;;;;;;;;5112850;28;20020;-87
2022/10/01 00:40:49;;;;;;;2.53;1.50;;;;;;;;;;5112196;28;20198;-86
2022/10/01 00:43:27;;;;;;;1.30;1.17;;;;;;;;;;5112635;28;20043;-88
2022/10/01 00:45:56;;;;;;;9.73;0.88;;;;;;;;;;5112945;28;20024;-87
2022/10/01 00:48:22;;;;;;;1.67;1.50;;;;;;;;;;5112506;28;20066;-86
2022/10/01 00:50:49;;;;;;;1.30;0.85;;;;;;;;;;5114296;28;20091;-88
2022/10/01 00:53:15;;;;;;;1.23;0.93;;;;;;;;;;5112912;28;20110;-85
2022/10/01 00:55:47;;;;;;;1.58;1.17;;;;;;;;;;5113707;28;20526;-88
2022/10/01 00:58:14;;;;;;;1.05;0.95;;;;;;;;;;5113719;28;20020;-87
2022/10/01 01:00:41;;;;;;;2.25;1.60;;;;;;;;;;5109989;28;20040;-84
2022/10/01 01:03:08;;;;;;;1.60;1.15;;;;;;;;;;5114357;28;20023;-86
2022/10/01 01:05:33;;;;;;;5.63;1.80;;;;;;;;;;5111704;28;20023;-86
2022/10/01 01:08:00;;;;;;;1.20;0.75;;;;;;;;;;5113812;28;20055;-86
2022/10/01 01:11:00;;;;;;;0.82;0.68;;;;;;;;;;5113182;28;20100;-87
2022/10/01 01:13:36;;;;;;;0.55;0.52;;;;;;;;;;5111801;28;20471;-87
2022/10/01 01:16:23;;;;;;;2.53;0.75;;;;;;;;;;5113761;28;20035;-86
2022/10/01 01:19:13;;;;;;;2.45;1.30;;;;;;;;;;5109177;28;20382;-87
2022/10/01 01:21:52;;;;;;;2.67;1.33;;;;;;;;;;5112876;28;20065;-87
2022/10/01 01:24:43;;;;;;;1.42;1.20;;;;;;;;;;5110193;28;20016;-88
2022/10/01 01:27:23;;;;;;;0.98;0.75;;;;;;;;;;5116518;28;20038;-88
2022/10/01 01:30:13;;;;;;;2.20;1.50;;;;;;;;;;5117315;28;20027;-85
2022/10/01 01:33:01;;;;;;;1.17;0.95;;;;;;;;;;5115835;28;20328;-87
2022/10/01 01:35:36;;;;;;;2.63;1.70;;;;;;;;;;5115916;28;20077;-86
2022/10/01 01:38:06;;;;;;;1.60;1.13;;;;;;;;;;5114380;28;20491;-89
2022/10/01 01:40:35;;;;;;;3.03;1.65;;;;;;;;;;5116075;28;20026;-85
2022/10/01 01:43:04;;;;;;;4.55;1.40;;;;;;;;;;5118027;28;20024;-89
2022/10/01 01:45:32;;;;;;;0.98;0.85;;;;;;;;;;5117556;28;20033;-88
2022/10/01 01:48:01;;;;;;;2.03;1.15;;;;;;;;;;5118503;27;20031;-86
2022/10/01 01:50:30;;;;;;;1.67;1.55;;;;;;;;;;5119155;27;20032;-87
2022/10/01 01:52:58;;;;;;;1.27;1.17;;;;;;;;;;5117435;28;20027;-85
2022/10/01 01:55:28;;;;;;;1.02;0.88;;;;;;;;;;5115801;28;20028;-84
2022/10/01 01:57:56;;;;;;;1.38;0.95;;;;;;;;;;5116762;28;20049;-86
2022/10/01 02:00:21;;;;;;;1.70;1.02;;;;;;;;;;5117981;28;20112;-87
2022/10/01 02:02:50;;;;;;;4.38;1.13;;;;;;;;;;5117827;28;20024;-87
2022/10/01 02:05:20;;;;;;;1.67;0.98;;;;;;;;;;5115390;28;20054;-88
2022/10/01 02:08:01;;;;;;;;;;;;;;;;;;5115114;28;20028;-85
2022/10/01 02:10:46;;;;;;;1.45;1.05;;;;;;;;;;5117523;28;20008;-87
2022/10/01 02:13:14;;;;;;;1.77;1.02;;;;;;;;;;5116278;28;20034;-87
2022/10/01 02:15:48;;;;;;;1.85;1.20;;;;;;;;;;5115529;28;20023;-86
2022/10/01 02:18:27;;;;;;;1.42;1.25;;;;;;;;;;5116530;28;20048;-87
2022/10/01 02:21:11;;;;;;;1.38;1.00;;;;;;;;;;5116724;28;20031;-88
2022/10/01 02:23:47;;;;;;;2.22;2.03;;;;;;;;;;5116087;28;20053;-87
2022/10/01 02:26:18;;;;;;;2.05;0.90;;;;;;;;;;5116104;28;20081;-86
2022/10/01 02:28:46;;;;;;;1.10;0.93;;;;;;;;;;5113348;28;20050;-87
2022/10/01 02:31:14;;;;;;;3.22;1.13;;;;;;;;;;5117085;28;20016;-84
2022/10/01 02:33:41;;;;;;;2.25;1.77;;;;;;;;;;5115277;28;20028;-86
2022/10/01 02:36:10;;;;;;;1.48;1.33;;;;;;;;;;5115331;28;20031;-88
2022/10/01 02:38:39;;;;;;;1.25;1.08;;;;;;;;;;5115052;28;20024;-88
2022/10/01 02:41:07;;;;;;;3.22;1.50;;;;;;;;;;5111736;28;20050;-87
2022/10/01 02:43:39;;;;;;;2.17;1.10;;;;;;;;;;5115090;28;20023;-88
2022/10/01 02:46:51;;;;;;;1.25;1.10;;;;;;;;;;5116492;28;20024;-86
2022/10/01 02:49:17;;;;;;;1.73;1.27;;;;;;;;;;5110733;28;20466;-89
2022/10/01 02:51:58;;;;;;;0.75;0.75;;;;;;;;;;5115299;28;20062;-89
2022/10/01 02:54:34;;;;;;;1.38;0.98;;;;;;;;;;5115640;28;20467;-88
2022/10/01 02:59:44;;;;;;;1.38;1.00;;;;;;;;;;5115045;28;20030;-87
2022/10/01 03:02:10;;;;;;;1.52;1.05;;;;;;;;;;5114443;28;20027;-86
2022/10/01 03:04:36;;;;;;;1.02;0.85;;;;;;;;;;5115523;28;20418;-86
2022/10/01 03:07:03;;;;;;;1.83;1.23;;;;;;;;;;5114966;27;20084;-87
2022/10/01 03:09:33;;;;;;;1.40;1.10;;;;;;;;;;5110326;28;20478;-85
2022/10/01 03:11:59;;;;;;;1.27;1.08;;;;;;;;;;5110576;28;20103;-87
2022/10/01 03:14:25;;;;;;;1.40;1.13;;;;;;;;;;5115682;28;20039;-88
2022/10/01 03:16:51;;;;;;;1.08;0.98;;;;;;;;;;5111862;28;20027;-86
2022/10/01 03:19:17;;;;;;;1.30;1.02;;;;;;;;;;5115472;28;20127;-85
2022/10/01 03:21:43;;;;;;;2.00;1.52;;;;;;;;;;5112106;28;20035;-86
2022/10/01 03:24:08;;;;;;;1.05;0.95;;;;;;;;;;5113379;28;20045;-89
2022/10/01 03:26:36;;;;;;;3.13;1.25;;;;;;;;;;5111947;28;20030;-90
2022/10/01 03:29:02;;;;;;;1.20;1.08;;;;;;;;;;5113623;28;20031;-88
2022/10/01 03:31:28;;;;;;;3.42;1.17;;;;;;;;;;5115671;28;20032;-88
2022/10/01 03:33:53;;;;;;;1.85;1.33;;;;;;;;;;5115660;28;20387;-89
2022/10/01 03:36:19;;;;;;;1.35;1.20;;;;;;;;;;5114564;28;20023;-87
2022/10/01 03:38:44;;;;;;;1.02;0.93;;;;;;;;;;5111996;28;20490;-87
2022/10/01 03:41:10;;;;;;;2.72;1.38;;;;;;;;;;5113870;28;20027;-88
2022/10/01 03:43:36;;;;;;;1.10;1.00;;;;;;;;;;5110543;28;20022;-88
2022/10/01 03:46:01;;;;;;;1.55;1.25;;;;;;;;;;5112606;28;20031;-89
2022/10/01 03:48:28;;;;;;;1.35;1.00;;;;;;;;;;5111798;28;20356;-87
2022/10/01 03:50:56;;;;;;;1.25;0.98;;;;;;;;;;5112254;28;20070;-87
2022/10/01 03:53:22;;;;;;;0.95;0.57;;;;;;;;;;5112228;28;20490;-88
2022/10/01 03:55:48;;;;;;;1.48;0.90;;;;;;;;;;5111067;28;20475;-89
2022/10/01 03:58:13;;;;;;;1.25;1.10;;;;;;;;;;5112191;28;20028;-85
2022/10/01 04:00:38;;;;;;;15.98;9.38;;;;;;;;;;5112277;28;20019;-86
2022/10/01 04:03:05;;;;;;;9.10;5.43;;;;;;;;;;5113680;28;20031;-85
2022/10/01 04:05:31;;;;;;;2.13;1.50;;;;;;;;;;5113909;28;20023;-86
2022/10/01 04:07:58;;;;;;;2.40;1.67;;;;;;;;;;5110965;28;20033;-87
2022/10/01 04:10:24;;;;;;;1.02;0.93;;;;;;;;;;5112958;27;20019;-88
2022/10/01 04:12:50;;;;;;;1.55;1.25;;;;;;;;;;5110733;28;20828;-88
2022/10/01 04:15:16;;;;;;;0.95;0.82;;;;;;;;;;5113093;28;20027;-89
2022/10/01 04:17:41;;;;;;;1.08;0.85;;;;;;;;;;5112158;28;20024;-86
2022/10/01 04:20:07;;;;;;;1.08;0.93;;;;;;;;;;5113806;28;20019;-90
2022/10/01 04:22:39;;;;;;;1.33;0.70;;;;;;;;;;5114008;28;20492;-87
2022/10/01 04:25:11;;;;;;;2.72;1.60;;;;;;;;;;5110164;28;20024;-87
2022/10/01 04:27:38;;;;;;;1.02;0.98;;;;;;;;;;5111822;28;20028;-89
2022/10/01 04:30:04;;;;;;;1.88;0.80;;;;;;;;;;5110729;28;20023;-90
2022/10/01 04:32:30;;;;;;;1.73;1.30;;;;;;;;;;5110880;28;20016;-89
2022/10/01 04:34:56;;;;;;;2.05;1.23;;;;;;;;;;5111192;28;20091;-88
2022/10/01 04:37:22;;;;;;;2.22;1.52;;;;;;;;;;5109900;28;20063;-87
2022/10/01 04:39:48;;;;;;;2.25;1.52;;;;;;;;;;5107491;28;20027;-89
2022/10/01 04:42:14;;;;;;;2.22;1.60;;;;;;;;;;5110299;28;20024;-84
2022/10/01 04:44:40;;;;;;;4.88;1.83;;;;;;;;;;5112312;28;20042;-87
2022/10/01 04:47:06;;;;;;;3.30;1.77;;;;;;;;;;5111535;28;20114;-85
2022/10/01 04:49:32;;;;;;;1.10;1.00;;;;;;;;;;5111282;28;20035;-89
2022/10/01 04:52:01;;;;;;;2.33;1.67;;;;;;;;;;5112786;28;20095;-87
2022/10/01 04:54:26;;;;;;;1.60;1.50;;;;;;;;;;5112247;28;20023;-87
2022/10/01 04:56:51;;;;;;;1.83;1.65;;;;;;;;;;5109770;28;20080;-85
2022/10/01 04:59:18;;;;;;;2.28;1.45;;;;;;;;;;5104760;28;20050;-86
2022/10/01 05:01:44;;;;;;;16.55;10.77;;;;;;;;;;5113640;28;20024;-83
2022/10/01 05:04:09;;;;;;;5.57;4.15;;;;;;;;;;5116075;28;20501;-85
2022/10/01 05:06:34;;;;;;;1.20;1.13;;;;;;;;;;5114619;28;20614;-85
2022/10/01 05:09:00;;;;;;;1.30;1.13;;;;;;;;;;5113839;28;20487;-89
2022/10/01 05:11:25;;;;;;;3.13;1.00;;;;;;;;;;5114668;28;20072;-87
2022/10/01 05:13:51;;;;;;;2.38;1.88;;;;;;;;;;5115087;28;20030;-85
2022/10/01 05:16:16;;;;;;;1.85;1.05;;;;;;;;;;5116889;28;20027;-90
2022/10/01 05:18:42;;;;;;;1.63;1.02;;;;;;;;;;5115244;28;20019;-87
2022/10/01 05:21:10;;;;;;;1.52;1.08;;;;;;;;;;5115355;28;20024;-88
2022/10/01 05:23:36;;;;;;;2.63;1.38;;;;;;;;;;5148304;27;20028;-90
2022/10/01 05:26:04;;;;;;;1.92;1.52;;;;;;;;;;5114936;27;20031;-89
2022/10/01 05:28:34;;;;;;;1.25;0.60;;;;;;;;;;5114679;28;20023;-88
2022/10/01 05:31:00;;;;;;;;;;;;;;;;;;5114542;28;20386;-87
2022/10/01 05:33:26;;;;;;;1.25;0.80;;;;;;;;;;5117105;28;19919;-90
2022/10/01 05:35:52;;;;;;;1.10;0.90;;;;;;;;;;5115962;28;20058;-91
2022/10/01 05:38:18;;;;;;;1.48;1.23;;;;;;;;;;5115846;28;20051;-89
2022/10/01 05:40:46;;;;;;;2.65;1.45;;;;;;;;;;5115991;28;20023;-90
2022/10/01 05:43:12;;;;;;;1.88;1.20;;;;;;;;;;5112551;28;20030;-88
2022/10/01 05:45:41;;;;;;;2.67;1.85;;;;;;;;;;5112608;28;20031;-87
2022/10/01 05:48:08;;;;;;;1.13;1.00;;;;;;;;;;5115914;28;20023;-87
2022/10/01 05:50:39;;;;;;;1.52;1.13;;;;;;;;;;5116104;28;20040;-89
2022/10/01 05:53:05;;;;;;;0.85;0.80;;;;;;;;;;5116118;28;20027;-88
2022/10/01 05:55:33;;;;;;;2.42;1.50;;;;;;;;;;5114104;28;20023;-89
2022/10/01 05:58:06;;;;;;;1.10;0.90;;;;;;;;;;5111571;28;20076;-90
2022/10/01 06:00:33;;;;;;;0.98;0.88;;;;;;;;;;5114324;28;20042;-90
2022/10/01 06:03:01;;;;;;;2.10;1.50;;;;;;;;;;5114153;28;20497;-90
2022/10/01 06:05:28;;;;;;;2.55;2.17;;;;;;;;;;5114547;28;20032;-90
2022/10/01 06:07:53;;;;;;;2.40;1.40;;;;;;;;;;5114402;28;20059;-88
2022/10/01 06:10:20;;;;;;;1.95;1.70;;;;;;;;;;5113986;28;20074;-88
2022/10/01 06:12:47;;;;;;;3.00;2.00;;;;;;;;;;5114447;28;20025;-91
2022/10/01 06:15:14;;;;;;;1.73;1.30;;;;;;;;;;5115843;27;20112;-89
2022/10/01 06:17:43;;;;;;;0.93;0.70;;;;;;;;;;5115313;27;20023;-91
2022/10/01 06:20:21;;;;;;;1.92;1.63;;;;;;;;;;5113057;28;20023;-90
2022/10/01 06:22:56;;;;;;;15.27;9.30;;;;;;;;;;5110793;28;20139;-87
2022/10/01 06:25:23;;;;;;;2.70;2.08;;;;;;;;;;5112997;28;20028;-89
2022/10/01 06:27:57;;;;;;;3.03;1.25;;;;;;;;;;5113938;27;20023;-90
2022/10/01 06:30:25;;;;;;;2.15;1.35;;;;;;;;;;5111611;28;20024;-91
2022/10/01 06:32:52;;;;;;;1.50;1.25;;;;;;;;;;5113818;28;20032;-86
2022/10/01 06:35:19;;;;;;;2.28;2.08;;;;;;;;;;5112307;28;20467;-87
2022/10/01 06:37:45;;;;;;;3.03;1.80;;;;;;;;;;5113974;28;20141;-89
2022/10/01 06:40:10;;;;;;;2.58;1.50;;;;;;;;;;5115535;28;20458;-88
2022/10/01 06:42:36;;;;;;;2.65;1.67;;;;;;;;;;5112209;28;20111;-90
2022/10/01 06:45:01;;;;;;;2.80;1.85;;;;;;;;;;5116178;28;20031;-88
2022/10/01 06:47:27;;;;;;;1.52;1.30;;;;;;;;;;5115304;28;20023;-88
2022/10/01 06:49:52;;;;;;;2.63;2.10;;;;;;;;;;5115441;28;20040;-89
2022/10/01 06:55:05;;;;;;;3.63;1.95;;;;;;;;;;5117833;28;20069;-88
2022/10/01 06:57:32;;;;;;;2.25;1.70;;;;;;;;;;5115988;28;20027;-88
2022/10/01 06:59:58;;;;;;;1.67;1.52;;;;;;;;;;5115435;28;20027;-90
2022/10/01 07:02:31;;;;;;;1.92;1.58;;;;;;;;;;5115133;28;20039;-90
2022/10/01 07:05:00;;;;;;;2.17;1.67;;;;;;;;;;5113572;28;20023;-89
2022/10/01 07:07:36;;;;;;;1.83;1.63;;;;;;;;;;5116396;28;20016;-88
2022/10/01 07:10:07;;;;;;;1.98;1.77;;;;;;;;;;5116822;28;20038;-88
2022/10/01 07:12:33;;;;;;;4.78;2.58;;;;;;;;;;5114089;28;20027;-88
2022/10/01 07:15:24;;;;;;;3.58;2.13;;;;;;;;;;5114737;28;20016;-88
2022/10/01 07:18:07;;;;;;;2.60;2.10;;;;;;;;;;5113877;28;20084;-90
2022/10/01 07:21:00;;;;;;;2.92;1.90;;;;;;;;;;5114797;28;20032;-91
2022/10/01 07:23:25;;;;;;;1.80;1.45;;;;;;;;;;5105875;28;20028;-89
2022/10/01 07:25:58;;;;;;;5.05;2.15;;;;;;;;;;5115397;28;20038;-90
2022/10/01 07:28:25;;;;;;;3.70;2.33;;;;;;;;;;5114673;28;20024;-88
2022/10/01 07:31:00;;;;;;;3.70;1.55;;;;;;;;;;5114241;28;20076;-90
2022/10/01 07:33:26;;;;;;;7.15;2.95;;;;;;;;;;5112924;28;20032;-89
2022/10/01 07:35:52;;;;;;;2.38;1.63;;;;;;;;;;5111444;28;20030;-90
2022/10/01 07:38:19;;;;;;;3.08;2.08;;;;;;;;;;5114109;28;20023;-89
2022/10/01 07:40:50;;;;;;;2.97;1.95;;;;;;;;;;5109788;28;20019;-89
2022/10/01 07:43:16;;;;;;;2.45;1.63;;;;;;;;;;5114641;28;20020;-89
2022/10/01 07:45:43;;;;;;;2.08;1.58;;;;;;;;;;5115184;28;20027;-91
2022/10/01 07:48:08;;;;;;;1.38;1.15;;;;;;;;;;5114973;27;20463;-90
2022/10/01 07:50:34;;;;;;;2.55;1.52;;;;;;;;;;5114486;28;20051;-89
2022/10/01 07:53:00;;;;;;;3.40;1.55;;;;;;;;;;5115264;28;20027;-89
2022/10/01 07:55:31;;;;;;;2.15;1.35;;;;;;;;;;5114883;28;20486;-90
2022/10/01 07:58:00;;;;;;;2.30;1.50;;;;;;;;;;5141919;27;20497;-89
2022/10/01 08:00:26;;;;;;;1.92;1.70;;;;;;;;;;5113333;28;20494;-90
2022/10/01 08:02:54;;;;;;;2.45;1.67;;;;;;;;;;5114579;28;20530;-90
2022/10/01 08:05:25;;;;;;;1.55;1.17;;;;;;;;;;5114022;28;20024;-88
2022/10/01 08:07:58;;;;;;;1.00;0.90;;;;;;;;;;5113799;28;20413;-90
2022/10/01 08:10:23;;;;;;;1.48;1.02;;;;;;;;;;5112599;28;20028;-87
2022/10/01 08:12:49;;;;;;;2.58;1.50;;;;;;;;;;5111705;28;20034;-86
2022/10/01 08:15:17;;;;;;;3.55;1.98;;;;;;;;;;5112071;27;20459;-83
2022/10/01 08:17:43;;;;;;;5.53;1.33;;;;;;;;;;5112481;28;20041;-88
2022/10/01 08:20:11;;;;;;;1.70;1.35;;;;;;;;;;5111815;28;20019;-87
2022/10/01 08:22:38;;;;;;;2.13;1.60;;;;;;;;;;5110329;28;20051;-86
2022/10/01 08:25:04;;;;;;;7.82;1.75;;;;;;;;;;5104979;28;20038;-87
2022/10/01 08:27:29;;;;;;;3.45;2.25;;;;;;;;;;5111187;28;20031;-86
2022/10/01 08:29:55;;;;;;;2.92;1.08;;;;;;;;;;5108009;28;20027;-89
2022/10/01 08:32:22;;;;;;;2.50;1.85;;;;;;;;;;5110832;28;20117;-87
2022/10/01 08:34:48;;;;;;;1.80;1.65;;;;;;;;;;5111832;28;20054;-87
2022/10/01 08:37:14;;;;;;;4.72;2.20;;;;;;;;;;5112936;28;20016;-89
2022/10/01 08:39:40;;;;;;;1.92;1.40;;;;;;;;;;5111324;28;20554;-86
2022/10/01 08:42:20;;;;;;;2.13;1.33;;;;;;;;;;5109587;28;20023;-88
2022/10/01 08:44:47;;;;;;;0.85;0.47;;;;;;;;;;5106360;28;20024;-90
2022/10/01 08:47:20;;;;;;;0.43;0.35;;;;;;;;;;5111502;28;20024;-86
2022/10/01 08:49:58;;;;;;;1.00;0.60;;;;;;;;;;5110548;28;20032;-88
2022/10/01 08:52:28;;;;;;;2.30;0.43;;;;;;;;;;5112182;28;20088;-89
2022/10/01 08:55:06;;;;;;;0.63;0.55;;;;;;;;;;5109564;28;20551;-87
2022/10/01 08:57:38;;;;;;;2.17;1.45;;;;;;;;;;5108203;28;20028;-85
2022/10/01 09:00:09;;;;;;;1.67;1.08;;;;;;;;;;5111193;28;20069;-89
2022/10/01 09:02:39;;;;;;;1.58;1.10;;;;;;;;;;5111124;28;20047;-87
2022/10/01 09:05:29;;;;;;;2.28;1.60;;;;;;;;;;5110415;28;20031;-87
2022/10/01 09:08:22;;;;;;;2.00;1.27;;;;;;;;;;5109331;28;20047;-87
2022/10/01 09:10:59;;;;;;;2.13;1.42;;;;;;;;;;5112588;28;20520;-88
2022/10/01 09:13:43;;;;;;;0.40;0.20;;;;;;;;;;5106006;28;20025;-89
2022/10/01 09:16:34;;;;;;;0.43;0.38;;;;;;;;;;5113451;28;20028;-88
2022/10/01 09:19:25;;;;;;;0.28;0.28;;;;;;;;;;5111158;28;20047;-87
2022/10/01 09:22:02;;;;;;;2.40;0.40;;;;;;;;;;5110287;28;20499;-89
2022/10/01 09:24:40;;;;;;;0.32;0.32;;;;;;;;;;5111840;28;20019;-89
2022/10/01 09:27:23;;;;;;;0.30;0.30;;;;;;;;;;5112561;28;20032;-87
2022/10/01 09:29:56;;;;;;;0.50;0.50;;;;;;;;;;5112778;28;20028;-90
2022/10/01 09:32:26;;;;;;;0.13;0.13;;;;;;;;;;5112057;28;20020;-87
2022/10/01 09:34:53;;;;;;;0.73;0.60;;;;;;;;;;5106298;28;20048;-87
2022/10/01 09:37:27;;;;;;;0.60;0.60;;;;;;;;;;5109589;28;20483;-88
2022/10/01 09:40:06;;;;;;;1.50;0.70;;;;;;;;;;5107902;28;20027;-89
2022/10/01 09:42:32;;;;;;;1.00;0.63;;;;;;;;;;5107254;28;20031;-88
2022/10/01 09:44:58;;;;;;;1.08;0.80;;;;;;;;;;5110748;28;20046;-87
2022/10/01 09:47:31;;;;;;;0.65;0.65;;;;;;;;;;5110999;28;20028;-87
2022/10/01 09:50:07;;;;;;;1.05;0.90;;;;;;;;;;5112355;27;20564;-90
2022/10/01 09:52:43;;;;;;;0.52;0.52;;;;;;;;;;5111073;28;20047;-91
2022/10/01 09:55:33;;;;;;;2.80;0.75;;;;;;;;;;5113939;27;20027;-90
2022/10/01 09:58:13;;;;;;;1.55;1.05;;;;;;;;;;5112390;28;20479;-88
2022/10/01 10:00:40;;;;;;;0.70;0.70;;;;;;;;;;5114058;28;20106;-88
2022/10/01 10:03:06;;;;;;;1.63;1.30;;;;;;;;;;5111595;28;20028;-88
2022/10/01 10:05:48;;;;;;;0.98;0.65;;;;;;;;;;5115717;28;20026;-91
2022/10/01 10:15:31;;;;;;;0.22;0.22;;;;;;;;;;5089838;28;20058;-85
2022/10/01 10:25:19;;;;;;;1.13;0.80;;;;;;;;;;5022972;28;20036;-87
2022/10/01 10:35:40;;;;;;;0.85;0.75;;;;;;;;;;5015116;28;20076;-88
2022/10/01 10:38:45;;;;;;;0.20;0.20;;;;;;;;;;4984793;28;20018;-91
2022/10/01 10:56:15;;;;;;;0.73;0.17;;;;;;;;;;4975453;28;20090;-90
2022/10/01 10:59:11;;;;;;;0.17;0.17;;;;;;;;;;4935136;29;20035;-88
2022/10/01 11:08:36;;;;;;;1.42;0.57;;;;;;;;;;4975970;28;20083;-88
2022/10/01 11:14:45;;;;;;;0.17;0.17;;;;;;;;;;5032106;28;20033;-87
2022/10/01 11:17:57;;;;;;;0.25;0.10;;;;;;;;;;5110039;28;20045;-86
2022/10/01 11:20:49;;;;;;;0.10;0.10;;;;;;;;;;5112095;28;20098;-87
2022/10/01 11:23:29;;;;;;;0.82;0.63;;;;;;;;;;5111151;28;20459;-89
2022/10/01 11:26:15;;;;;;;0.20;0.10;;;;;;;;;;5107561;28;20034;-89
2022/10/01 11:28:53;;;;;;;1.63;0.60;;;;;;;;;;5104321;28;20024;-87
2022/10/01 11:31:29;;;;;;;1.98;0.93;;;;;;;;;;5109319;27;20115;-87
2022/10/01 11:34:25;;;;;;;0.73;0.50;;;;;;;;;;5109720;28;20028;-89
2022/10/01 11:37:32;;;;;;;0.65;0.40;;;;;;;;;;5109141;28;20035;-88
2022/10/01 11:40:01;;;;;;;3.85;1.27;;;;;;;;;;5111041;28;20023;-89
2022/10/01 11:42:34;;;;;;;1.95;1.17;;;;;;;;;;5107038;28;20023;-87
2022/10/01 11:45:22;;;;;;;2.63;1.13;;;;;;;;;;5111006;28;20031;-86
2022/10/01 11:48:22;;;;;;;0.88;0.32;;;;;;;;;;5108773;28;20027;-89
2022/10/01 11:50:52;;;;;;;1.25;1.15;;;;;;;;;;5107827;28;20036;-91
2022/10/01 11:53:29;;;;;;;1.15;0.95;;;;;;;;;;5111092;28;20501;-86
2022/10/01 11:59:07;;;;;;;0.75;0.75;;;;;;;;;;5112103;28;20042;-89
2022/10/01 12:01:40;;;;;;;1.05;0.95;;;;;;;;;;5109755;28;20064;-88
2022/10/01 12:04:13;;;;;;;1.35;0.93;;;;;;;;;;5108127;28;20032;-88
2022/10/01 12:06:59;;;;;;;2.10;1.70;;;;;;;;;;5109723;28;20046;-88
2022/10/01 12:09:54;;;;;;;1.10;0.98;;;;;;;;;;5107157;28;20028;-88
2022/10/01 12:12:30;;;;;;;2.35;1.50;;;;;;;;;;5110372;28;20375;-86
2022/10/01 12:15:01;;;;;;;1.08;0.85;;;;;;;;;;5108548;28;20032;-86
2022/10/01 12:18:05;;;;;;;1.88;1.27;;;;;;;;;;5110046;28;20038;-87
2022/10/01 12:20:41;;;;;;;0.93;0.68;;;;;;;;;;5095392;28;20032;-87
2022/10/01 12:23:13;;;;;;;2.97;1.10;;;;;;;;;;5106020;28;20753;-87
2022/10/01 12:25:48;;;;;;;3.97;0.93;;;;;;;;;;5108899;28;20482;-86
2022/10/01 12:28:21;;;;;;;2.20;1.17;;;;;;;;;;5109164;28;20034;-86
2022/10/01 12:30:58;;;;;;;1.27;0.90;;;;;;;;;;5105107;28;20027;-87
2022/10/01 12:33:53;;;;;;;1.83;1.23;;;;;;;;;;5105202;28;20505;-85
2022/10/01 12:36:51;;;;;;;2.05;1.38;;;;;;;;;;5109002;28;20329;-86
2022/10/01 12:39:29;;;;;;;1.38;1.05;;;;;;;;;;5100983;28;20446;-86
2022/10/01 12:42:06;;;;;;;1.00;0.73;;;;;;;;;;5107213;28;20034;-87
2022/10/01 12:44:56;;;;;;;0.90;0.70;;;;;;;;;;5104844;28;20027;-86
2022/10/01 12:47:21;;;;;;;2.50;0.70;;;;;;;;;;5105957;28;20501;-87
2022/10/01 12:50:12;;;;;;;1.70;1.25;;;;;;;;;;5109024;28;20015;-87
2022/10/01 12:52:49;;;;;;;1.05;0.90;;;;;;;;;;5077899;28;20036;-84
2022/10/01 12:55:38;;;;;;;2.38;1.50;;;;;;;;;;5105854;28;20028;-86
2022/10/01 12:58:23;;;;;;;2.08;1.20;;;;;;;;;;5110043;28;20103;-86
2022/10/01 13:01:16;;;;;;;1.35;1.00;;;;;;;;;;5110245;28;20024;-86
2022/10/01 13:04:04;;;;;;;2.10;1.00;;;;;;;;;;5106086;28;20031;-87
2022/10/01 13:07:02;;;;;;;2.00;1.23;;;;;;;;;;5104459;28;20123;-86
2022/10/01 13:09:56;;;;;;;1.48;1.20;;;;;;;;;;5108670;28;20502;-87
2022/10/01 13:12:37;;;;;;;1.90;1.13;;;;;;;;;;5106174;28;20035;-85
2022/10/01 13:15:09;;;;;;;1.77;1.10;;;;;;;;;;5107612;28;20024;-85
2022/10/01 13:18:10;;;;;;;1.65;1.15;;;;;;;;;;5110292;28;20493;-90
2022/10/01 13:21:00;;;;;;;1.52;0.93;;;;;;;;;;5103306;28;20110;-87
2022/10/01 13:23:37;;;;;;;;;;;;;;;;;;5108505;28;20036;-88
2022/10/01 13:26:18;;;;;;;0.95;0.80;;;;;;;;;;5114560;28;19922;-85
2022/10/01 13:28:44;;;;;;;1.48;1.17;;;;;;;;;;5110187;27;20106;-86
2022/10/01 13:31:13;;;;;;;2.13;0.93;;;;;;;;;;5113953;27;20111;-88
2022/10/01 13:33:39;;;;;;;1.45;0.98;;;;;;;;;;5113760;28;20478;-87
2022/10/01 13:36:06;;;;;;;0.88;0.75;;;;;;;;;;5109249;28;20040;-90
2022/10/01 13:38:42;;;;;;;1.52;1.05;;;;;;;;;;5110391;28;20031;-88
2022/10/01 13:41:21;;;;;;;1.77;1.00;;;;;;;;;;5109491;28;20034;-89
2022/10/01 13:44:07;;;;;;;2.78;2.00;;;;;;;;;;5116362;28;20023;-87
2022/10/01 13:46:46;;;;;;;1.52;1.10;;;;;;;;;;5105709;28;20040;-84
2022/10/01 13:49:24;;;;;;;0.97;0.73;;;;;;;;;;5112356;28;20019;-89
2022/10/01 13:51:51;;;;;;;1.55;0.95;;;;;;;;;;5111327;27;20556;-88
2022/10/01 13:54:32;;;;;;;1.23;1.05;;;;;;;;;;5115592;28;20482;-86
2022/10/01 13:57:24;;;;;;;2.90;1.48;;;;;;;;;;5110722;27;20447;-87
2022/10/01 13:59:59;;;;;;;2.60;1.42;;;;;;;;;;5114206;28;20371;-88
2022/10/01 14:02:36;;;;;;;1.90;0.90;;;;;;;;;;5112931;27;20026;-88
2022/10/01 14:05:27;;;;;;;2.75;0.77;;;;;;;;;;5117264;28;20027;-86
2022/10/01 14:08:02;;;;;;;0.98;0.88;;;;;;;;;;5111037;28;20067;-87
2022/10/01 14:10:35;;;;;;;2.45;1.60;;;;;;;;;;5117087;28;20077;-89
2022/10/01 14:16:01;;;;;;;2.25;1.20;;;;;;;;;;5113511;28;20034;-87
2022/10/01 14:18:33;;;;;;;;;;;;;;;;;;5115523;28;20111;-87
2022/10/01 14:21:01;;;;;;;1.55;1.25;;;;;;;;;;5117303;28;19912;-87
2022/10/01 14:23:42;;;;;;;3.05;1.63;;;;;;;;;;5116485;28;20437;-87
2022/10/01 14:26:24;;;;;;;1.88;1.10;;;;;;;;;;5104284;28;20031;-88
2022/10/01 14:29:05;;;;;;;4.65;1.10;;;;;;;;;;5116248;28;20111;-88
2022/10/01 14:31:44;;;;;;;1.48;0.90;;;;;;;;;;5109217;28;20036;-87
2022/10/01 14:34:34;;;;;;;1.40;1.00;;;;;;;;;;5112493;28;20023;-87
2022/10/01 14:37:00;;;;;;;1.45;0.93;;;;;;;;;;5103565;28;20024;-83
2022/10/01 14:39:28;;;;;;;1.83;0.88;;;;;;;;;;5109543;28;20020;-87
2022/10/01 14:41:56;;;;;;;1.33;0.98;;;;;;;;;;5108196;28;20096;-87
2022/10/01 14:44:26;;;;;;;1.33;0.80;;;;;;;;;;5107151;28;20051;-85
2022/10/01 14:46:53;;;;;;;;;;;;;;;;;;5108905;28;20028;-86
2022/10/01 14:49:29;;;;;;;9.10;7.13;;;;;;;;;;5108999;28;19989;-85
2022/10/01 14:52:06;;;;;;;9.52;5.40;;;;;;;;;;5111643;28;20055;-86
2022/10/01 14:54:55;;;;;;;17.98;10.23;;;;;;;;;;5113241;27;20397;-84
2022/10/01 14:57:32;;;;;;;2.95;1.95;;;;;;;;;;5095914;28;20040;-86
2022/10/01 15:00:00;;;;;;;2.88;1.40;;;;;;;;;;5109321;28;20031;-84
2022/10/01 15:02:27;;;;;;;0.88;0.80;;;;;;;;;;5105047;28;20027;-85
2022/10/01 15:04:55;;;;;;;2.10;1.80;;;;;;;;;;5107149;28;20027;-84
2022/10/01 15:07:23;;;;;;;2.65;1.98;;;;;;;;;;5100019;28;20556;-84
2022/10/01 15:09:50;;;;;;;2.15;1.85;;;;;;;;;;5107059;28;20036;-85
2022/10/01 15:12:18;;;;;;;2.22;1.30;;;;;;;;;;5110275;27;20032;-85
2022/10/01 15:14:45;;;;;;;9.73;6.68;;;;;;;;;;5105275;28;20035;-86
2022/10/01 15:17:23;;;;;;;10.38;7.15;;;;;;;;;;5109294;28;20545;-87
2022/10/01 15:19:52;;;;;;;5.80;3.47;;;;;;;;;;5105156;28;20016;-84
2022/10/01 15:22:25;;;;;;;3.25;1.88;;;;;;;;;;5107894;28;20070;-86
2022/10/01 15:24:53;;;;;;;2.40;1.38;;;;;;;;;;5104568;28;23016;-85
2022/10/01 15:27:20;;;;;;;0.80;0.80;;;;;;;;;;5114019;28;20023;-87
2022/10/01 15:29:50;;;;;;;5.15;2.00;;;;;;;;;;5112645;28;20031;-88
2022/10/01 15:32:21;;;;;;;3.42;2.83;;;;;;;;;;5113867;27;20043;-87
2022/10/01 15:34:50;;;;;;;1.52;1.27;;;;;;;;;;5113949;28;20015;-87
2022/10/01 15:37:39;;;;;;;1.80;1.00;;;;;;;;;;5113424;28;20016;-89
2022/10/01 15:40:08;;;;;;;1.37;1.17;;;;;;;;;;5109685;28;20333;-87
2022/10/01 15:42:35;;;;;;;1.35;1.10;;;;;;;;;;5106377;27;20031;-89
2022/10/01 15:45:07;;;;;;;2.50;1.42;;;;;;;;;;5111658;28;20124;-88
2022/10/01 15:47:36;;;;;;;1.27;0.93;;;;;;;;;;5113180;28;20032;-86
2022/10/01 15:50:25;;;;;;;1.45;0.75;;;;;;;;;;5110789;28;20092;-87
2022/10/01 15:52:54;;;;;;;2.00;1.38;;;;;;;;;;5112801;28;20345;-87
2022/10/01 15:55:32;;;;;;;5.68;2.38;;;;;;;;;;5112809;28;20088;-87
2022/10/01 15:58:14;;;;;;;0.98;0.77;;;;;;;;;;5110918;28;20059;-86
2022/10/01 16:00:46;;;;;;;1.13;0.82;;;;;;;;;;5112843;28;20024;-87
2022/10/01 16:03:39;;;;;;;2.03;1.25;;;;;;;;;;5107857;28;20050;-89
2022/10/01 16:06:15;;;;;;;0.57;0.47;;;;;;;;;;5088378;28;20035;-88
2022/10/01 16:09:00;;;;;;;1.15;0.70;;;;;;;;;;5111157;28;20028;-88
2022/10/01 16:11:31;;;;;;;1.73;1.23;;;;;;;;;;5108020;28;20463;-87
2022/10/01 16:14:30;;;;;;;0.45;0.45;;;;;;;;;;5112185;28;20491;-86
2022/10/01 16:17:17;;;;;;;0.35;0.32;;;;;;;;;;5112664;28;20160;-86